createdAt,value
2022-08-02T00:00:41.132Z,1014.10
2022-08-02T00:01:41.163Z,1014.11
2022-08-02T00:02:41.122Z,1014.13
2022-08-02T00:03:41.125Z,1014.18
2022-08-02T00:04:41.122Z,1014.16
2022-08-02T00:05:41.115Z,1014.16
2022-08-02T00:06:41.112Z,1014.14
2022-08-02T00:07:41.572Z,1014.15
2022-08-02T00:08:41.106Z,1014.17
2022-08-02T00:09:41.108Z,1014.18
2022-08-02T00:10:41.103Z,1014.18
2022-08-02T00:11:43.173Z,1014.16
2022-08-02T00:12:41.096Z,1014.16
2022-08-02T00:13:41.093Z,1014.14
2022-08-02T00:14:41.095Z,1014.17
2022-08-02T00:15:41.089Z,1014.18
2022-08-02T00:16:41.082Z,1014.14
2022-08-02T00:17:41.082Z,1014.20
2022-08-02T00:18:41.081Z,1014.24
2022-08-02T00:19:41.076Z,1014.20
2022-08-02T00:20:41.077Z,1014.19
2022-08-02T00:21:41.089Z,1014.20
2022-08-02T00:22:41.069Z,1014.18
2022-08-02T00:24:03.318Z,1014.17
2022-08-02T00:24:41.063Z,1014.17
2022-08-02T00:25:55.352Z,1014.17
2022-08-02T00:26:41.057Z,1014.13
2022-08-02T00:27:41.056Z,1014.10
2022-08-02T00:28:41.051Z,1014.09
2022-08-02T00:29:42.691Z,1014.12
2022-08-02T00:30:41.049Z,1014.13
2022-08-02T00:31:41.045Z,1014.14
2022-08-02T00:32:41.038Z,1014.11
2022-08-02T00:34:26.164Z,1014.10
2022-08-02T00:34:41.035Z,1014.07
2022-08-02T00:35:41.044Z,1014.07
2022-08-02T00:36:41.030Z,1014.10
2022-08-02T00:37:41.027Z,1014.08
2022-08-02T00:38:41.027Z,1014.11
2022-08-02T00:39:41.030Z,1014.10
2022-08-02T00:40:41.020Z,1014.05
2022-08-02T00:41:41.019Z,1014.04
2022-08-02T00:42:41.017Z,1014.10
2022-08-02T00:43:41.014Z,1014.07
2022-08-02T00:44:41.008Z,1014.07
2022-08-02T00:46:03.486Z,1014.08
2022-08-02T00:46:41.005Z,1014.09
2022-08-02T00:47:41.007Z,1014.05
2022-08-02T00:48:43.099Z,1014.08
2022-08-02T00:49:41.125Z,1014.09
2022-08-02T00:50:40.993Z,1014.10
2022-08-02T00:51:40.991Z,1014.14
2022-08-02T00:52:40.986Z,1014.14
2022-08-02T00:53:40.982Z,1014.18
2022-08-02T00:54:40.981Z,1014.13
2022-08-02T00:55:40.979Z,1014.13
2022-08-02T00:56:40.981Z,1014.14
2022-08-02T00:57:40.974Z,1014.08
2022-08-02T00:58:40.971Z,1014.10
2022-08-02T00:59:40.967Z,1014.12
2022-08-02T01:00:40.975Z,1014.12
2022-08-02T01:01:56.235Z,1014.14
2022-08-02T01:02:40.966Z,1014.18
2022-08-02T01:03:40.957Z,1014.16
2022-08-02T01:04:40.955Z,1014.21
2022-08-02T01:06:10.182Z,1014.22
2022-08-02T01:06:40.950Z,1014.22
2022-08-02T01:07:40.947Z,1014.25
2022-08-02T01:08:40.944Z,1014.25
2022-08-02T01:09:40.937Z,1014.23
2022-08-02T01:10:40.942Z,1014.21
2022-08-02T01:11:40.936Z,1014.18
2022-08-02T01:12:40.938Z,1014.18
2022-08-02T01:13:40.934Z,1014.16
2022-08-02T01:14:40.942Z,1014.21
2022-08-02T01:15:40.927Z,1014.24
2022-08-02T01:16:40.925Z,1014.23
2022-08-02T01:17:40.920Z,1014.25
2022-08-02T01:18:40.918Z,1014.26
2022-08-02T01:19:40.915Z,1014.26
2022-08-02T01:20:40.910Z,1014.24
2022-08-02T01:21:40.911Z,1014.26
2022-08-02T01:23:00.641Z,1014.27
2022-08-02T01:23:40.905Z,1014.27
2022-08-02T01:24:40.902Z,1014.29
2022-08-02T01:25:40.908Z,1014.31
2022-08-02T01:26:40.897Z,1014.27
2022-08-02T01:27:40.893Z,1014.30
2022-08-02T01:28:40.892Z,1014.29
2022-08-02T01:29:40.886Z,1014.30
2022-08-02T01:30:40.889Z,1014.33
2022-08-02T01:31:40.882Z,1014.34
2022-08-02T01:32:40.881Z,1014.32
2022-08-02T01:33:40.877Z,1014.33
2022-08-02T01:34:40.873Z,1014.35
2022-08-02T01:35:50.623Z,1014.37
2022-08-02T01:36:40.867Z,1014.32
2022-08-02T01:37:40.865Z,1014.36
2022-08-02T01:38:40.865Z,1014.34
2022-08-02T01:39:40.858Z,1014.41
2022-08-02T01:40:40.860Z,1014.39
2022-08-02T01:41:40.855Z,1014.39
2022-08-02T01:42:40.853Z,1014.38
2022-08-02T01:43:40.856Z,1014.35
2022-08-02T01:44:40.910Z,1014.38
2022-08-02T01:45:40.841Z,1014.37
2022-08-02T01:46:40.842Z,1014.37
2022-08-02T01:47:40.839Z,1014.36
2022-08-02T01:48:40.836Z,1014.41
2022-08-02T01:49:40.970Z,1014.37
2022-08-02T01:50:40.831Z,1014.35
2022-08-02T01:51:40.832Z,1014.36
2022-08-02T01:52:40.828Z,1014.35
2022-08-02T01:53:40.823Z,1014.35
2022-08-02T01:54:40.822Z,1014.30
2022-08-02T01:55:57.698Z,1014.36
2022-08-02T01:56:40.819Z,1014.33
2022-08-02T01:57:41.982Z,1014.29
2022-08-02T01:58:40.814Z,1014.33
2022-08-02T01:59:40.809Z,1014.34
2022-08-02T02:00:40.808Z,1014.35
2022-08-02T02:01:40.852Z,1014.39
2022-08-02T02:02:40.805Z,1014.38
2022-08-02T02:03:41.597Z,1014.45
2022-08-02T02:04:40.792Z,1014.43
2022-08-02T02:05:40.794Z,1014.43
2022-08-02T02:06:40.788Z,1014.40
2022-08-02T02:07:40.787Z,1014.40
2022-08-02T02:08:40.783Z,1014.38
2022-08-02T02:09:50.451Z,1014.40
2022-08-02T02:10:40.778Z,1014.36
2022-08-02T02:12:05.182Z,1014.38
2022-08-02T02:12:40.773Z,1014.36
2022-08-02T02:13:40.768Z,1014.38
2022-08-02T02:14:40.768Z,1014.35
2022-08-02T02:15:40.845Z,1014.38
2022-08-02T02:16:40.765Z,1014.37
2022-08-02T02:18:10.658Z,1014.37
2022-08-02T02:18:40.757Z,1014.39
2022-08-02T02:19:40.756Z,1014.37
2022-08-02T02:20:40.750Z,1014.37
2022-08-02T02:21:41.470Z,1014.39
2022-08-02T02:22:40.743Z,1014.37
2022-08-02T02:23:40.833Z,1014.36
2022-08-02T02:24:40.740Z,1014.35
2022-08-02T02:25:40.732Z,1014.36
2022-08-02T02:26:40.737Z,1014.35
2022-08-02T02:27:40.735Z,1014.35
2022-08-02T02:28:40.727Z,1014.35
2022-08-02T02:29:40.723Z,1014.37
2022-08-02T02:30:40.723Z,1014.34
2022-08-02T02:31:40.717Z,1014.38
2022-08-02T02:32:40.715Z,1014.39
2022-08-02T02:33:40.714Z,1014.42
2022-08-02T02:34:40.709Z,1014.41
2022-08-02T02:35:40.708Z,1014.39
2022-08-02T02:36:40.705Z,1014.39
2022-08-02T02:37:40.701Z,1014.40
2022-08-02T02:38:40.700Z,1014.43
2022-08-02T02:39:40.694Z,1014.43
2022-08-02T02:40:40.691Z,1014.41
2022-08-02T02:41:40.689Z,1014.44
2022-08-02T02:42:41.182Z,1014.46
2022-08-02T02:43:40.683Z,1014.44
2022-08-02T02:44:40.680Z,1014.47
2022-08-02T02:45:40.679Z,1014.40
2022-08-02T02:46:40.672Z,1014.42
2022-08-02T02:47:41.823Z,1014.40
2022-08-02T02:48:40.667Z,1014.42
2022-08-02T02:49:40.663Z,1014.44
2022-08-02T02:50:40.662Z,1014.44
2022-08-02T02:51:40.667Z,1014.45
2022-08-02T02:52:40.653Z,1014.44
2022-08-02T02:54:31.939Z,1014.47
2022-08-02T02:54:40.650Z,1014.45
2022-08-02T02:55:40.646Z,1014.46
2022-08-02T02:56:40.643Z,1014.45
2022-08-02T02:57:40.640Z,1014.51
2022-08-02T02:58:40.650Z,1014.52
2022-08-02T02:59:48.959Z,1014.54
2022-08-02T03:00:40.670Z,1014.53
2022-08-02T03:01:56.865Z,1014.54
2022-08-02T03:02:40.623Z,1014.51
2022-08-02T03:03:40.621Z,1014.52
2022-08-02T03:04:57.026Z,1014.52
2022-08-02T03:05:40.615Z,1014.48
2022-08-02T03:06:40.611Z,1014.50
2022-08-02T03:07:40.608Z,1014.52
2022-08-02T03:08:40.608Z,1014.53
2022-08-02T03:09:40.602Z,1014.55
2022-08-02T03:10:40.597Z,1014.51
2022-08-02T03:11:40.599Z,1014.55
2022-08-02T03:12:40.589Z,1014.55
2022-08-02T03:13:40.587Z,1014.58
2022-08-02T03:14:40.586Z,1014.55
2022-08-02T03:15:40.585Z,1014.56
2022-08-02T03:16:40.576Z,1014.56
2022-08-02T03:17:40.570Z,1014.54
2022-08-02T03:18:40.572Z,1014.57
2022-08-02T03:19:40.567Z,1014.57
2022-08-02T03:20:40.564Z,1014.53
2022-08-02T03:21:40.559Z,1014.52
2022-08-02T03:22:40.556Z,1014.52
2022-08-02T03:23:40.554Z,1014.55
2022-08-02T03:24:40.549Z,1014.55
2022-08-02T03:25:40.546Z,1014.56
2022-08-02T03:26:40.543Z,1014.55
2022-08-02T03:27:40.542Z,1014.56
2022-08-02T03:28:40.536Z,1014.54
2022-08-02T03:29:40.532Z,1014.54
2022-08-02T03:30:40.532Z,1014.51
2022-08-02T03:31:40.527Z,1014.56
2022-08-02T03:32:40.526Z,1014.56
2022-08-02T03:33:40.521Z,1014.52
2022-08-02T03:34:40.516Z,1014.53
2022-08-02T03:35:40.508Z,1014.57
2022-08-02T03:36:40.509Z,1014.58
2022-08-02T03:37:40.505Z,1014.57
2022-08-02T03:38:40.501Z,1014.56
2022-08-02T03:39:51.091Z,1014.55
2022-08-02T03:40:40.496Z,1014.53
2022-08-02T03:41:40.490Z,1014.54
2022-08-02T03:42:40.487Z,1014.58
2022-08-02T03:43:40.479Z,1014.57
2022-08-02T03:44:40.479Z,1014.60
2022-08-02T03:45:40.476Z,1014.57
2022-08-02T03:46:40.476Z,1014.62
2022-08-02T03:47:40.471Z,1014.64
2022-08-02T03:48:40.465Z,1014.66
2022-08-02T03:49:40.550Z,1014.68
2022-08-02T03:50:40.459Z,1014.70
2022-08-02T03:51:40.456Z,1014.68
2022-08-02T03:52:40.452Z,1014.66
2022-08-02T03:53:40.449Z,1014.69
2022-08-02T03:54:45.602Z,1014.69
2022-08-02T03:55:40.439Z,1014.68
2022-08-02T03:56:40.442Z,1014.71
2022-08-02T03:57:40.437Z,1014.76
2022-08-02T03:58:40.427Z,1014.74
2022-08-02T03:59:40.430Z,1014.77
2022-08-02T04:00:40.454Z,1014.75
2022-08-02T04:01:40.424Z,1014.75
2022-08-02T04:02:40.419Z,1014.77
2022-08-02T04:03:40.417Z,1014.80
2022-08-02T04:04:40.413Z,1014.79
2022-08-02T04:06:03.920Z,1014.81
2022-08-02T04:06:41.761Z,1014.82
2022-08-02T04:08:32.681Z,1014.82
2022-08-02T04:08:40.400Z,1014.85
2022-08-02T04:09:40.404Z,1014.86
2022-08-02T04:10:40.395Z,1014.91
2022-08-02T04:11:40.391Z,1014.91
2022-08-02T04:12:40.387Z,1014.90
2022-08-02T04:13:40.381Z,1014.90
2022-08-02T04:14:40.384Z,1014.93
2022-08-02T04:15:40.379Z,1014.95
2022-08-02T04:16:40.374Z,1014.94
2022-08-02T04:17:40.370Z,1014.94
2022-08-02T04:18:40.372Z,1014.97
2022-08-02T04:19:40.366Z,1014.96
2022-08-02T04:20:40.362Z,1014.95
2022-08-02T04:21:49.267Z,1014.94
2022-08-02T04:22:40.366Z,1014.97
2022-08-02T04:23:40.355Z,1014.95
2022-08-02T04:24:40.351Z,1014.98
2022-08-02T04:25:41.343Z,1015.01
2022-08-02T04:26:40.343Z,1014.97
2022-08-02T04:28:15.650Z,1015.01
2022-08-02T04:28:40.385Z,1015.00
2022-08-02T04:29:43.940Z,1015.01
2022-08-02T04:30:40.329Z,1015.01
2022-08-02T04:31:40.327Z,1015.02
2022-08-02T04:32:40.321Z,1015.02
2022-08-02T04:33:40.324Z,1015.01
2022-08-02T04:34:40.321Z,1015.00
2022-08-02T04:35:40.320Z,1015.10
2022-08-02T04:36:40.317Z,1015.10
2022-08-02T04:38:08.837Z,1015.14
2022-08-02T04:38:40.308Z,1015.05
2022-08-02T04:39:40.303Z,1015.08
2022-08-02T04:40:40.307Z,1015.05
2022-08-02T04:41:43.723Z,1015.03
2022-08-02T04:42:40.291Z,1015.02
2022-08-02T04:43:40.291Z,1015.03
2022-08-02T04:44:40.286Z,1015.01
2022-08-02T04:45:40.283Z,1015.06
2022-08-02T04:46:40.280Z,1015.02
2022-08-02T04:48:03.680Z,1015.05
2022-08-02T04:48:40.275Z,1015.07
2022-08-02T04:49:40.383Z,1015.08
2022-08-02T04:50:40.267Z,1015.05
2022-08-02T04:51:40.268Z,1015.09
2022-08-02T04:52:45.446Z,1015.16
2022-08-02T04:53:40.260Z,1015.14
2022-08-02T04:54:40.257Z,1015.15
2022-08-02T04:55:40.254Z,1015.12
2022-08-02T04:56:40.255Z,1015.06
2022-08-02T04:57:40.247Z,1015.08
2022-08-02T04:58:41.005Z,1015.06
2022-08-02T04:59:40.243Z,1015.04
2022-08-02T05:00:40.295Z,1015.06
2022-08-02T05:01:40.240Z,1015.06
2022-08-02T05:02:40.237Z,1015.09
2022-08-02T05:03:40.233Z,1015.14
2022-08-02T05:04:40.230Z,1015.18
2022-08-02T05:05:40.226Z,1015.17
2022-08-02T05:06:40.221Z,1015.17
2022-08-02T05:07:40.224Z,1015.20
2022-08-02T05:08:40.219Z,1015.15
2022-08-02T05:09:40.218Z,1015.19
2022-08-02T05:10:40.216Z,1015.22
2022-08-02T05:11:40.213Z,1015.24
2022-08-02T05:12:40.210Z,1015.28
2022-08-02T05:13:58.744Z,1015.19
2022-08-02T05:14:40.207Z,1015.22
2022-08-02T05:15:40.206Z,1015.19
2022-08-02T05:16:40.203Z,1015.20
2022-08-02T05:17:47.586Z,1015.19
2022-08-02T05:18:40.199Z,1015.20
2022-08-02T05:19:40.199Z,1015.25
2022-08-02T05:20:40.198Z,1015.22
2022-08-02T05:21:40.197Z,1015.21
2022-08-02T05:22:40.198Z,1015.21
2022-08-02T05:23:40.196Z,1015.23
2022-08-02T05:24:40.193Z,1015.26
2022-08-02T05:25:40.192Z,1015.23
2022-08-02T05:26:40.195Z,1015.24
2022-08-02T05:27:40.199Z,1015.23
2022-08-02T05:28:40.190Z,1015.25
2022-08-02T05:29:40.191Z,1015.28
2022-08-02T05:30:40.191Z,1015.28
2022-08-02T05:31:40.192Z,1015.31
2022-08-02T05:32:40.190Z,1015.33
2022-08-02T05:33:40.187Z,1015.31
2022-08-02T05:34:40.194Z,1015.36
2022-08-02T05:35:40.190Z,1015.38
2022-08-02T05:36:42.176Z,1015.37
2022-08-02T05:37:40.189Z,1015.37
2022-08-02T05:38:40.188Z,1015.41
2022-08-02T05:39:55.602Z,1015.38
2022-08-02T05:40:54.586Z,1015.40
2022-08-02T05:41:40.188Z,1015.39
2022-08-02T05:42:40.191Z,1015.38
2022-08-02T05:43:40.190Z,1015.40
2022-08-02T05:44:40.190Z,1015.41
2022-08-02T05:45:40.188Z,1015.38
2022-08-02T05:46:40.191Z,1015.42
2022-08-02T05:47:40.195Z,1015.45
2022-08-02T05:48:40.195Z,1015.45
2022-08-02T05:49:40.253Z,1015.48
2022-08-02T05:50:40.196Z,1015.48
2022-08-02T05:51:40.199Z,1015.47
2022-08-02T05:52:40.200Z,1015.50
2022-08-02T05:53:40.249Z,1015.51
2022-08-02T05:54:40.208Z,1015.55
2022-08-02T05:55:40.203Z,1015.49
2022-08-02T05:56:40.202Z,1015.53
2022-08-02T05:57:43.407Z,1015.54
2022-08-02T05:58:40.206Z,1015.56
2022-08-02T05:59:40.210Z,1015.58
2022-08-02T06:00:40.209Z,1015.61
2022-08-02T06:01:40.351Z,1015.61
2022-08-02T06:02:40.213Z,1015.64
2022-08-02T06:03:40.214Z,1015.64
2022-08-02T06:04:40.217Z,1015.64
2022-08-02T06:05:40.218Z,1015.65
2022-08-02T06:06:40.222Z,1015.65
2022-08-02T06:07:40.222Z,1015.65
2022-08-02T06:08:42.510Z,1015.68
2022-08-02T06:09:40.229Z,1015.67
2022-08-02T06:10:40.234Z,1015.70
2022-08-02T06:11:40.237Z,1015.72
2022-08-02T06:12:40.235Z,1015.66
2022-08-02T06:13:40.240Z,1015.66
2022-08-02T06:14:40.247Z,1015.68
2022-08-02T06:15:52.857Z,1015.69
2022-08-02T06:16:41.979Z,1015.70
2022-08-02T06:17:41.940Z,1015.70
2022-08-02T06:18:40.248Z,1015.69
2022-08-02T06:19:51.760Z,1015.65
2022-08-02T06:20:40.258Z,1015.66
2022-08-02T06:22:34.575Z,1015.69
2022-08-02T06:22:40.462Z,1015.67
2022-08-02T06:23:40.271Z,1015.65
2022-08-02T06:24:40.271Z,1015.67
2022-08-02T06:25:50.407Z,1015.61
2022-08-02T06:26:40.276Z,1015.65
2022-08-02T06:27:40.278Z,1015.62
2022-08-02T06:28:40.280Z,1015.63
2022-08-02T06:29:40.287Z,1015.67
2022-08-02T06:30:40.294Z,1015.68
2022-08-02T06:31:40.305Z,1015.64
2022-08-02T06:32:40.298Z,1015.66
2022-08-02T06:33:40.303Z,1015.68
2022-08-02T06:34:40.307Z,1015.65
2022-08-02T06:35:40.309Z,1015.61
2022-08-02T06:36:40.312Z,1015.67
2022-08-02T06:37:40.318Z,1015.65
2022-08-02T06:38:40.321Z,1015.61
2022-08-02T06:39:40.326Z,1015.60
2022-08-02T06:40:40.328Z,1015.58
2022-08-02T06:41:40.335Z,1015.65
2022-08-02T06:42:40.332Z,1015.60
2022-08-02T06:43:40.351Z,1015.58
2022-08-02T06:44:48.989Z,1015.61
2022-08-02T06:45:40.347Z,1015.54
2022-08-02T06:47:11.091Z,1015.53
2022-08-02T06:47:40.361Z,1015.52
2022-08-02T06:48:40.361Z,1015.54
2022-08-02T06:49:52.382Z,1015.57
2022-08-02T06:50:40.368Z,1015.60
2022-08-02T06:51:40.373Z,1015.61
2022-08-02T06:52:40.377Z,1015.57
2022-08-02T06:53:40.387Z,1015.56
2022-08-02T06:54:40.386Z,1015.56
2022-08-02T06:55:43.996Z,1015.53
2022-08-02T06:56:40.398Z,1015.51
2022-08-02T06:57:40.405Z,1015.47
2022-08-02T06:58:40.403Z,1015.46
2022-08-02T06:59:40.409Z,1015.46
2022-08-02T07:00:40.411Z,1015.47
2022-08-02T07:01:40.457Z,1015.44
2022-08-02T07:02:40.455Z,1015.46
2022-08-02T07:03:40.427Z,1015.45
2022-08-02T07:04:40.432Z,1015.42
2022-08-02T07:05:40.436Z,1015.40
2022-08-02T07:06:40.441Z,1015.44
2022-08-02T07:07:40.445Z,1015.42
2022-08-02T07:08:40.457Z,1015.48
2022-08-02T07:09:56.603Z,1015.46
2022-08-02T07:10:40.460Z,1015.52
2022-08-02T07:11:40.469Z,1015.48
2022-08-02T07:12:40.468Z,1015.48
2022-08-02T07:13:40.477Z,1015.48
2022-08-02T07:14:40.481Z,1015.47
2022-08-02T07:15:40.487Z,1015.44
2022-08-02T07:16:40.487Z,1015.46
2022-08-02T07:17:40.494Z,1015.46
2022-08-02T07:18:40.497Z,1015.53
2022-08-02T07:19:40.504Z,1015.50
2022-08-02T07:20:40.506Z,1015.49
2022-08-02T07:21:56.743Z,1015.53
2022-08-02T07:22:40.515Z,1015.53
2022-08-02T07:23:40.524Z,1015.52
2022-08-02T07:24:40.534Z,1015.48
2022-08-02T07:26:03.979Z,1015.49
2022-08-02T07:27:01.540Z,1015.53
2022-08-02T07:27:40.542Z,1015.50
2022-08-02T07:28:40.544Z,1015.53
2022-08-02T07:29:46.502Z,1015.54
2022-08-02T07:30:40.555Z,1015.53
2022-08-02T07:31:40.564Z,1015.48
2022-08-02T07:32:40.567Z,1015.51
2022-08-02T07:33:43.297Z,1015.51
2022-08-02T07:34:40.576Z,1015.48
2022-08-02T07:35:40.579Z,1015.49
2022-08-02T07:36:40.586Z,1015.52
2022-08-02T07:37:55.660Z,1015.53
2022-08-02T07:38:40.598Z,1015.51
2022-08-02T07:39:40.601Z,1015.49
2022-08-02T07:40:40.607Z,1015.51
2022-08-02T07:41:40.613Z,1015.46
2022-08-02T07:42:40.622Z,1015.43
2022-08-02T07:43:40.626Z,1015.46
2022-08-02T07:44:40.631Z,1015.45
2022-08-02T07:45:45.665Z,1015.45
2022-08-02T07:46:40.644Z,1015.47
2022-08-02T07:47:40.645Z,1015.42
2022-08-02T07:48:40.652Z,1015.41
2022-08-02T07:49:40.686Z,1015.39
2022-08-02T07:50:40.665Z,1015.38
2022-08-02T07:51:40.675Z,1015.43
2022-08-02T07:52:40.722Z,1015.41
2022-08-02T07:53:50.635Z,1015.39
2022-08-02T07:54:40.689Z,1015.42
2022-08-02T07:55:40.900Z,1015.42
2022-08-02T07:56:40.708Z,1015.40
2022-08-02T07:57:45.782Z,1015.43
2022-08-02T07:58:40.712Z,1015.43
2022-08-02T07:59:40.718Z,1015.44
2022-08-02T08:00:40.725Z,1015.45
2022-08-02T08:01:40.790Z,1015.48
2022-08-02T08:02:40.736Z,1015.47
2022-08-02T08:03:40.745Z,1015.46
2022-08-02T08:04:40.751Z,1015.48
2022-08-02T08:05:40.782Z,1015.49
2022-08-02T08:06:40.756Z,1015.50
2022-08-02T08:07:40.775Z,1015.49
2022-08-02T08:08:40.801Z,1015.46
2022-08-02T08:09:40.775Z,1015.47
2022-08-02T08:10:40.788Z,1015.48
2022-08-02T08:11:40.796Z,1015.48
2022-08-02T08:12:40.806Z,1015.45
2022-08-02T08:13:40.801Z,1015.52
2022-08-02T08:14:40.809Z,1015.47
2022-08-02T08:15:40.814Z,1015.41
2022-08-02T08:16:40.822Z,1015.32
2022-08-02T08:17:40.827Z,1015.29
2022-08-02T08:18:40.832Z,1015.31
2022-08-02T08:19:50.847Z,1015.32
2022-08-02T08:20:40.846Z,1015.30
2022-08-02T08:21:40.853Z,1015.28
2022-08-02T08:22:40.858Z,1015.28
2022-08-02T08:23:40.865Z,1015.29
2022-08-02T08:24:40.869Z,1015.27
2022-08-02T08:25:41.334Z,1015.25
2022-08-02T08:26:40.885Z,1015.25
2022-08-02T08:27:40.891Z,1015.23
2022-08-02T08:28:40.893Z,1015.18
2022-08-02T08:29:40.899Z,1015.17
2022-08-02T08:30:40.906Z,1015.14
2022-08-02T08:31:40.908Z,1015.16
2022-08-02T08:32:40.914Z,1015.18
2022-08-02T08:33:40.917Z,1015.19
2022-08-02T08:34:40.921Z,1015.20
2022-08-02T08:35:40.928Z,1015.21
2022-08-02T08:36:40.929Z,1015.17
2022-08-02T08:37:40.939Z,1015.22
2022-08-02T08:38:40.940Z,1015.16
2022-08-02T08:39:42.046Z,1015.10
2022-08-02T08:40:40.947Z,1015.08
2022-08-02T08:41:40.951Z,1015.11
2022-08-02T08:42:40.957Z,1015.04
2022-08-02T08:43:40.956Z,1015.06
2022-08-02T08:44:41.145Z,1015.07
2022-08-02T08:45:40.963Z,1015.06
2022-08-02T08:46:40.965Z,1015.17
2022-08-02T08:47:40.977Z,1015.32
2022-08-02T08:48:40.972Z,1015.33
2022-08-02T08:49:52.854Z,1015.33
2022-08-02T08:50:40.977Z,1015.27
2022-08-02T08:51:40.981Z,1015.26
2022-08-02T08:52:40.982Z,1015.20
2022-08-02T08:53:41.136Z,1015.18
2022-08-02T08:54:41.061Z,1015.13
2022-08-02T08:55:40.991Z,1015.14
2022-08-02T08:56:40.992Z,1015.18
2022-08-02T08:57:40.998Z,1015.13
2022-08-02T08:58:41.003Z,1015.19
2022-08-02T08:59:41.006Z,1015.16
2022-08-02T09:00:41.006Z,1015.15
2022-08-02T09:01:49.809Z,1015.10
2022-08-02T09:02:41.011Z,1015.07
2022-08-02T09:03:41.013Z,1015.08
2022-08-02T09:04:41.021Z,1015.11
2022-08-02T09:05:41.021Z,1015.10
2022-08-02T09:06:41.024Z,1015.11
2022-08-02T09:07:41.027Z,1015.10
2022-08-02T09:08:41.030Z,1015.06
2022-08-02T09:09:41.035Z,1015.04
2022-08-02T09:10:41.040Z,1015.02
2022-08-02T09:11:41.042Z,1015.05
2022-08-02T09:12:41.046Z,1015.05
2022-08-02T09:13:46.138Z,1015.10
2022-08-02T09:14:41.049Z,1015.07
2022-08-02T09:15:41.059Z,1015.08
2022-08-02T09:16:41.053Z,1015.05
2022-08-02T09:17:41.058Z,1015.06
2022-08-02T09:18:41.060Z,1015.05
2022-08-02T09:19:46.274Z,1015.01
2022-08-02T09:20:41.064Z,1015.04
2022-08-02T09:21:41.066Z,1014.99
2022-08-02T09:22:41.068Z,1015.05
2022-08-02T09:23:41.074Z,1015.03
2022-08-02T09:24:41.070Z,1015.04
2022-08-02T09:25:41.077Z,1015.03
2022-08-02T09:26:41.080Z,1015.02
2022-08-02T09:27:41.081Z,1015.04
2022-08-02T09:28:41.080Z,1015.00
2022-08-02T09:30:05.251Z,1014.98
2022-08-02T09:30:41.088Z,1014.98
2022-08-02T09:31:49.411Z,1014.92
2022-08-02T09:32:41.089Z,1014.87
2022-08-02T09:33:41.092Z,1014.91
2022-08-02T09:34:41.093Z,1014.95
2022-08-02T09:36:05.235Z,1014.92
2022-08-02T09:36:41.098Z,1014.95
2022-08-02T09:37:42.044Z,1014.92
2022-08-02T09:38:41.102Z,1014.92
2022-08-02T09:39:41.103Z,1014.87
2022-08-02T09:40:41.107Z,1014.89
2022-08-02T09:41:41.107Z,1014.89
2022-08-02T09:42:41.111Z,1014.84
2022-08-02T09:44:03.220Z,1014.85
2022-08-02T09:44:41.111Z,1014.87
2022-08-02T09:45:41.113Z,1014.89
2022-08-02T09:46:41.117Z,1014.85
2022-08-02T09:47:41.116Z,1014.83
2022-08-02T09:48:41.117Z,1014.81
2022-08-02T09:49:41.203Z,1014.81
2022-08-02T09:50:41.123Z,1014.77
2022-08-02T09:51:41.121Z,1014.78
2022-08-02T09:52:43.697Z,1014.79
2022-08-02T09:53:41.122Z,1014.80
2022-08-02T09:54:41.130Z,1014.82
2022-08-02T09:55:41.131Z,1014.89
2022-08-02T09:56:41.135Z,1014.87
2022-08-02T09:57:41.131Z,1014.90
2022-08-02T09:58:41.135Z,1014.85
2022-08-02T09:59:41.134Z,1014.88
2022-08-02T10:00:52.541Z,1014.89
2022-08-02T10:01:46.997Z,1014.89
2022-08-02T10:02:41.165Z,1014.90
2022-08-02T10:03:41.143Z,1014.90
2022-08-02T10:04:52.326Z,1014.90
2022-08-02T10:05:43.645Z,1014.83
2022-08-02T10:06:41.145Z,1014.92
2022-08-02T10:07:41.145Z,1014.87
2022-08-02T10:08:41.146Z,1014.83
2022-08-02T10:09:46.384Z,1014.79
2022-08-02T10:10:41.150Z,1014.78
2022-08-02T10:11:41.153Z,1014.77
2022-08-02T10:12:41.153Z,1014.75
2022-08-02T10:13:41.156Z,1014.76
2022-08-02T10:14:41.157Z,1014.81
2022-08-02T10:15:50.281Z,1014.85
2022-08-02T10:16:41.158Z,1014.90
2022-08-02T10:17:41.159Z,1014.85
2022-08-02T10:18:41.709Z,1014.87
2022-08-02T10:20:02.754Z,1014.88
2022-08-02T10:20:41.164Z,1014.87
2022-08-02T10:21:46.304Z,1014.85
2022-08-02T10:22:41.167Z,1014.79
2022-08-02T10:23:41.166Z,1014.88
2022-08-02T10:24:48.285Z,1014.85
2022-08-02T10:25:41.168Z,1014.87
2022-08-02T10:26:41.174Z,1014.90
2022-08-02T10:28:04.228Z,1014.91
2022-08-02T10:28:41.168Z,1014.93
2022-08-02T10:29:50.484Z,1014.89
2022-08-02T10:30:41.175Z,1014.86
2022-08-02T10:31:41.179Z,1014.94
2022-08-02T10:32:41.180Z,1014.95
2022-08-02T10:33:41.192Z,1014.98
2022-08-02T10:34:41.182Z,1014.90
2022-08-02T10:35:41.184Z,1014.90
2022-08-02T10:36:41.183Z,1014.90
2022-08-02T10:37:41.184Z,1014.89
2022-08-02T10:38:41.190Z,1014.84
2022-08-02T10:39:41.189Z,1014.90
2022-08-02T10:40:41.189Z,1014.84
2022-08-02T10:41:41.189Z,1014.79
2022-08-02T10:42:41.194Z,1014.82
2022-08-02T10:43:41.193Z,1014.82
2022-08-02T10:44:41.194Z,1014.83
2022-08-02T10:45:41.196Z,1014.79
2022-08-02T10:46:41.201Z,1014.78
2022-08-02T10:47:41.200Z,1014.77
2022-08-02T10:48:41.201Z,1014.67
2022-08-02T10:49:41.297Z,1014.68
2022-08-02T10:50:41.205Z,1014.66
2022-08-02T10:51:41.273Z,1014.65
2022-08-02T10:52:41.222Z,1014.66
2022-08-02T10:53:41.209Z,1014.65
2022-08-02T10:54:41.210Z,1014.58
2022-08-02T10:55:41.214Z,1014.51
2022-08-02T10:56:41.213Z,1014.51
2022-08-02T10:57:41.214Z,1014.47
2022-08-02T10:58:41.218Z,1014.39
2022-08-02T10:59:41.218Z,1014.42
2022-08-02T11:00:41.267Z,1014.43
2022-08-02T11:01:41.259Z,1014.41
2022-08-02T11:02:41.228Z,1014.41
2022-08-02T11:03:41.260Z,1014.41
2022-08-02T11:04:41.233Z,1014.37
2022-08-02T11:05:43.042Z,1014.39
2022-08-02T11:06:41.230Z,1014.39
2022-08-02T11:07:41.232Z,1014.36
2022-08-02T11:08:41.237Z,1014.34
2022-08-02T11:09:41.238Z,1014.36
2022-08-02T11:10:41.234Z,1014.42
2022-08-02T11:11:53.761Z,1014.38
2022-08-02T11:12:41.236Z,1014.38
2022-08-02T11:13:41.237Z,1014.39
2022-08-02T11:14:41.240Z,1014.38
2022-08-02T11:15:41.244Z,1014.39
2022-08-02T11:16:41.245Z,1014.36
2022-08-02T11:17:41.267Z,1014.35
2022-08-02T11:18:41.248Z,1014.34
2022-08-02T11:19:41.531Z,1014.31
2022-08-02T11:20:41.249Z,1014.28
2022-08-02T11:21:41.250Z,1014.27
2022-08-02T11:22:41.251Z,1014.26
2022-08-02T11:23:44.755Z,1014.23
2022-08-02T11:24:41.255Z,1014.26
2022-08-02T11:26:03.315Z,1014.26
2022-08-02T11:26:41.261Z,1014.28
2022-08-02T11:27:41.260Z,1014.29
2022-08-02T11:28:41.257Z,1014.31
2022-08-02T11:29:41.268Z,1014.29
2022-08-02T11:30:41.264Z,1014.32
2022-08-02T11:31:41.308Z,1014.30
2022-08-02T11:32:41.263Z,1014.22
2022-08-02T11:33:41.272Z,1014.28
2022-08-02T11:34:41.269Z,1014.29
2022-08-02T11:35:41.269Z,1014.32
2022-08-02T11:36:41.274Z,1014.27
2022-08-02T11:37:41.274Z,1014.30
2022-08-02T11:38:41.276Z,1014.33
2022-08-02T11:39:41.277Z,1014.29
2022-08-02T11:40:41.274Z,1014.28
2022-08-02T11:41:47.016Z,1014.26
2022-08-02T11:42:41.277Z,1014.23
2022-08-02T11:43:41.279Z,1014.28
2022-08-02T11:44:41.282Z,1014.26
2022-08-02T11:45:41.282Z,1014.27
2022-08-02T11:46:41.284Z,1014.25
2022-08-02T11:47:41.294Z,1014.21
2022-08-02T11:48:41.289Z,1014.23
2022-08-02T11:49:41.399Z,1014.26
2022-08-02T11:50:41.290Z,1014.25
2022-08-02T11:51:42.479Z,1014.23
2022-08-02T11:52:41.285Z,1014.22
2022-08-02T11:53:41.290Z,1014.13
2022-08-02T11:54:41.293Z,1014.22
2022-08-02T11:55:41.292Z,1014.20
2022-08-02T11:56:41.295Z,1014.23
2022-08-02T11:58:02.982Z,1014.18
2022-08-02T11:58:41.847Z,1014.16
2022-08-02T11:59:41.299Z,1014.20
2022-08-02T12:00:41.302Z,1014.18
2022-08-02T12:01:45.013Z,1014.15
2022-08-02T12:02:41.304Z,1014.16
2022-08-02T12:03:41.358Z,1014.13
2022-08-02T12:04:41.309Z,1014.13
2022-08-02T12:06:04.765Z,1014.13